sensor_id;sensor_type;location;lat;lon;timestamp;P1;durP1;ratioP1;P2;durP2;ratioP2
4244;SDS011;2136;48.502;9.194;2024-02-16T00:01:00;10.93;;;6.83;;
4244;SDS011;2136;48.502;9.194;2024-02-16T00:03:27;9.10;;;6.40;;
4244;SDS011;2136;48.502;9.194;2024-02-16T00:05:54;12.40;;;6.73;;
4244;SDS011;2136;48.502;9.194;2024-02-16T00:08:21;9.90;;;6.73;;
4244;SDS011;2136;48.502;9.194;2024-02-16T00:10:49;10.53;;;7.20;;
4244;SDS011;2136;48.502;9.194;2024-02-16T00:13:16;9.53;;;6.20;;
4244;SDS011;2136;48.502;9.194;2024-02-16T00:15:43;8.13;;;6.80;;
4244;SDS011;2136;48.502;9.194;2024-02-16T00:18:10;7.53;;;6.20;;
4244;SDS011;2136;48.502;9.194;2024-02-16T00:20:37;8.70;;;5.90;;
4244;SDS011;2136;48.502;9.194;2024-02-16T00:23:04;8.83;;;6.23;;
4244;SDS011;2136;48.502;9.194;2024-02-16T00:25:31;13.40;;;7.37;;
4244;SDS011;2136;48.502;9.194;2024-02-16T00:28:00;9.13;;;6.20;;
4244;SDS011;2136;48.502;9.194;2024-02-16T00:30:28;14.20;;;7.20;;
4244;SDS011;2136;48.502;9.194;2024-02-16T00:32:54;8.27;;;5.40;;
4244;SDS011;2136;48.502;9.194;2024-02-16T00:35:21;7.93;;;5.80;;
4244;SDS011;2136;48.502;9.194;2024-02-16T00:37:48;6.47;;;5.57;;
4244;SDS011;2136;48.502;9.194;2024-02-16T00:40:15;10.43;;;5.80;;
4244;SDS011;2136;48.502;9.194;2024-02-16T00:42:42;9.53;;;5.33;;
4244;SDS011;2136;48.502;9.194;2024-02-16T00:45:10;12.00;;;6.37;;
4244;SDS011;2136;48.502;9.194;2024-02-16T00:47:37;8.10;;;5.40;;
4244;SDS011;2136;48.502;9.194;2024-02-16T00:50:05;8.00;;;5.63;;
4244;SDS011;2136;48.502;9.194;2024-02-16T00:52:34;9.43;;;6.03;;
4244;SDS011;2136;48.502;9.194;2024-02-16T00:55:01;11.03;;;6.00;;
4244;SDS011;2136;48.502;9.194;2024-02-16T00:57:29;10.77;;;5.73;;
4244;SDS011;2136;48.502;9.194;2024-02-16T00:59:56;6.03;;;5.20;;
4244;SDS011;2136;48.502;9.194;2024-02-16T01:02:24;9.17;;;5.10;;
4244;SDS011;2136;48.502;9.194;2024-02-16T01:04:51;7.60;;;5.30;;
4244;SDS011;2136;48.502;9.194;2024-02-16T01:07:19;7.73;;;5.00;;
4244;SDS011;2136;48.502;9.194;2024-02-16T01:09:46;10.23;;;5.23;;
4244;SDS011;2136;48.502;9.194;2024-02-16T01:12:13;6.80;;;5.10;;
4244;SDS011;2136;48.502;9.194;2024-02-16T01:14:40;6.40;;;4.67;;
4244;SDS011;2136;48.502;9.194;2024-02-16T01:17:07;7.67;;;4.87;;
4244;SDS011;2136;48.502;9.194;2024-02-16T01:19:35;12.93;;;5.37;;
4244;SDS011;2136;48.502;9.194;2024-02-16T01:22:02;6.60;;;5.20;;
4244;SDS011;2136;48.502;9.194;2024-02-16T01:24:29;8.47;;;5.90;;
4244;SDS011;2136;48.502;9.194;2024-02-16T01:26:56;10.43;;;6.60;;
4244;SDS011;2136;48.502;9.194;2024-02-16T01:29:23;10.10;;;7.90;;
4244;SDS011;2136;48.502;9.194;2024-02-16T01:31:50;7.50;;;5.60;;
4244;SDS011;2136;48.502;9.194;2024-02-16T01:34:17;8.23;;;5.60;;
4244;SDS011;2136;48.502;9.194;2024-02-16T01:36:45;7.70;;;5.63;;
4244;SDS011;2136;48.502;9.194;2024-02-16T01:39:12;11.83;;;5.80;;
4244;SDS011;2136;48.502;9.194;2024-02-16T01:41:38;9.67;;;5.90;;
4244;SDS011;2136;48.502;9.194;2024-02-16T01:44:05;18.53;;;5.73;;
4244;SDS011;2136;48.502;9.194;2024-02-16T01:46:33;9.97;;;5.37;;
4244;SDS011;2136;48.502;9.194;2024-02-16T01:49:00;7.33;;;5.57;;
4244;SDS011;2136;48.502;9.194;2024-02-16T01:51:27;9.10;;;5.53;;
4244;SDS011;2136;48.502;9.194;2024-02-16T01:53:56;9.03;;;5.70;;
4244;SDS011;2136;48.502;9.194;2024-02-16T01:56:23;9.57;;;4.80;;
4244;SDS011;2136;48.502;9.194;2024-02-16T01:58:51;6.70;;;4.73;;
4244;SDS011;2136;48.502;9.194;2024-02-16T02:01:18;9.47;;;6.40;;
4244;SDS011;2136;48.502;9.194;2024-02-16T02:03:45;8.30;;;5.63;;
4244;SDS011;2136;48.502;9.194;2024-02-16T02:06:12;6.80;;;5.93;;
4244;SDS011;2136;48.502;9.194;2024-02-16T02:08:39;6.70;;;5.23;;
4244;SDS011;2136;48.502;9.194;2024-02-16T02:11:07;6.97;;;4.80;;
4244;SDS011;2136;48.502;9.194;2024-02-16T02:13:34;5.93;;;5.33;;
4244;SDS011;2136;48.502;9.194;2024-02-16T02:16:01;10.20;;;5.30;;
4244;SDS011;2136;48.502;9.194;2024-02-16T02:18:30;7.53;;;5.13;;
4244;SDS011;2136;48.502;9.194;2024-02-16T02:20:57;7.80;;;5.80;;
4244;SDS011;2136;48.502;9.194;2024-02-16T02:23:25;6.43;;;5.47;;
4244;SDS011;2136;48.502;9.194;2024-02-16T02:25:52;6.70;;;5.17;;
4244;SDS011;2136;48.502;9.194;2024-02-16T02:28:19;7.90;;;5.67;;
4244;SDS011;2136;48.502;9.194;2024-02-16T02:30:48;6.90;;;4.63;;
4244;SDS011;2136;48.502;9.194;2024-02-16T02:33:15;5.90;;;4.63;;
4244;SDS011;2136;48.502;9.194;2024-02-16T02:35:42;5.80;;;4.67;;
4244;SDS011;2136;48.502;9.194;2024-02-16T02:38:09;5.63;;;4.70;;
4244;SDS011;2136;48.502;9.194;2024-02-16T02:40:37;8.23;;;5.07;;
4244;SDS011;2136;48.502;9.194;2024-02-16T02:43:04;9.77;;;5.60;;
4244;SDS011;2136;48.502;9.194;2024-02-16T02:45:31;6.20;;;5.00;;
4244;SDS011;2136;48.502;9.194;2024-02-16T02:47:58;9.33;;;4.83;;
4244;SDS011;2136;48.502;9.194;2024-02-16T02:50:24;5.80;;;5.17;;
4244;SDS011;2136;48.502;9.194;2024-02-16T02:52:52;6.63;;;5.03;;
4244;SDS011;2136;48.502;9.194;2024-02-16T02:55:25;11.70;;;5.30;;
4244;SDS011;2136;48.502;9.194;2024-02-16T02:57:54;8.43;;;5.60;;
4244;SDS011;2136;48.502;9.194;2024-02-16T03:00:23;6.00;;;4.77;;
4244;SDS011;2136;48.502;9.194;2024-02-16T03:02:50;11.60;;;5.90;;
4244;SDS011;2136;48.502;9.194;2024-02-16T03:05:17;7.90;;;5.13;;
4244;SDS011;2136;48.502;9.194;2024-02-16T03:07:45;7.80;;;5.30;;
4244;SDS011;2136;48.502;9.194;2024-02-16T03:10:12;6.23;;;4.63;;
4244;SDS011;2136;48.502;9.194;2024-02-16T03:12:40;8.50;;;5.00;;
4244;SDS011;2136;48.502;9.194;2024-02-16T03:15:09;6.80;;;5.40;;
4244;SDS011;2136;48.502;9.194;2024-02-16T03:17:36;5.03;;;4.53;;
4244;SDS011;2136;48.502;9.194;2024-02-16T03:20:02;6.10;;;4.47;;
4244;SDS011;2136;48.502;9.194;2024-02-16T03:22:30;6.20;;;4.73;;
4244;SDS011;2136;48.502;9.194;2024-02-16T03:24:57;5.93;;;4.60;;
4244;SDS011;2136;48.502;9.194;2024-02-16T03:27:23;5.30;;;4.63;;
4244;SDS011;2136;48.502;9.194;2024-02-16T03:29:50;7.20;;;5.27;;
4244;SDS011;2136;48.502;9.194;2024-02-16T03:32:19;6.80;;;4.80;;
4244;SDS011;2136;48.502;9.194;2024-02-16T03:34:46;7.00;;;4.40;;
4244;SDS011;2136;48.502;9.194;2024-02-16T03:37:13;5.20;;;4.70;;
4244;SDS011;2136;48.502;9.194;2024-02-16T03:39:40;6.33;;;4.00;;
4244;SDS011;2136;48.502;9.194;2024-02-16T03:42:08;7.03;;;4.60;;
4244;SDS011;2136;48.502;9.194;2024-02-16T03:44:35;6.57;;;4.37;;
4244;SDS011;2136;48.502;9.194;2024-02-16T03:47:02;6.33;;;3.90;;
4244;SDS011;2136;48.502;9.194;2024-02-16T03:49:30;6.33;;;4.70;;
4244;SDS011;2136;48.502;9.194;2024-02-16T03:51:57;6.10;;;4.27;;
4244;SDS011;2136;48.502;9.194;2024-02-16T03:54:24;6.97;;;4.70;;
4244;SDS011;2136;48.502;9.194;2024-02-16T03:56:52;5.40;;;4.77;;
4244;SDS011;2136;48.502;9.194;2024-02-16T03:59:19;5.73;;;4.93;;
4244;SDS011;2136;48.502;9.194;2024-02-16T04:01:46;5.33;;;4.80;;
4244;SDS011;2136;48.502;9.194;2024-02-16T04:04:13;9.23;;;4.27;;
4244;SDS011;2136;48.502;9.194;2024-02-16T04:06:41;8.63;;;5.30;;
4244;SDS011;2136;48.502;9.194;2024-02-16T04:09:08;7.00;;;4.43;;
4244;SDS011;2136;48.502;9.194;2024-02-16T04:11:35;5.90;;;4.80;;
4244;SDS011;2136;48.502;9.194;2024-02-16T04:14:03;8.30;;;4.20;;
4244;SDS011;2136;48.502;9.194;2024-02-16T04:16:30;6.57;;;4.90;;
4244;SDS011;2136;48.502;9.194;2024-02-16T04:18:56;7.00;;;4.53;;
4244;SDS011;2136;48.502;9.194;2024-02-16T04:21:23;8.10;;;5.10;;
4244;SDS011;2136;48.502;9.194;2024-02-16T04:23:51;9.90;;;4.27;;
4244;SDS011;2136;48.502;9.194;2024-02-16T04:26:18;7.23;;;4.70;;
4244;SDS011;2136;48.502;9.194;2024-02-16T04:28:45;12.77;;;6.80;;
4244;SDS011;2136;48.502;9.194;2024-02-16T04:31:12;12.40;;;8.32;;
4244;SDS011;2136;48.502;9.194;2024-02-16T04:33:38;8.73;;;6.00;;
4244;SDS011;2136;48.502;9.194;2024-02-16T04:36:06;13.17;;;5.97;;
4244;SDS011;2136;48.502;9.194;2024-02-16T04:38:33;7.80;;;5.50;;
4244;SDS011;2136;48.502;9.194;2024-02-16T04:41:01;8.07;;;5.80;;
4244;SDS011;2136;48.502;9.194;2024-02-16T04:43:30;10.83;;;6.50;;
4244;SDS011;2136;48.502;9.194;2024-02-16T04:45:57;9.67;;;5.40;;
4244;SDS011;2136;48.502;9.194;2024-02-16T04:48:24;7.30;;;5.50;;
4244;SDS011;2136;48.502;9.194;2024-02-16T04:50:51;12.10;;;5.57;;
4244;SDS011;2136;48.502;9.194;2024-02-16T04:53:18;6.07;;;5.00;;
4244;SDS011;2136;48.502;9.194;2024-02-16T04:55:45;6.67;;;4.60;;
4244;SDS011;2136;48.502;9.194;2024-02-16T04:58:13;9.77;;;3.90;;
4244;SDS011;2136;48.502;9.194;2024-02-16T05:00:39;5.43;;;4.70;;
4244;SDS011;2136;48.502;9.194;2024-02-16T05:03:06;6.47;;;4.73;;
4244;SDS011;2136;48.502;9.194;2024-02-16T05:05:33;5.87;;;4.27;;
4244;SDS011;2136;48.502;9.194;2024-02-16T05:08:00;7.80;;;5.60;;
4244;SDS011;2136;48.502;9.194;2024-02-16T05:10:27;5.80;;;4.27;;
4244;SDS011;2136;48.502;9.194;2024-02-16T05:12:54;7.80;;;4.60;;
4244;SDS011;2136;48.502;9.194;2024-02-16T05:15:24;4.50;;;4.07;;
4244;SDS011;2136;48.502;9.194;2024-02-16T05:17:52;5.80;;;3.67;;
4244;SDS011;2136;48.502;9.194;2024-02-16T05:20:19;6.60;;;4.30;;
4244;SDS011;2136;48.502;9.194;2024-02-16T05:22:46;8.03;;;3.93;;
4244;SDS011;2136;48.502;9.194;2024-02-16T05:25:14;4.80;;;4.30;;
4244;SDS011;2136;48.502;9.194;2024-02-16T05:27:41;6.80;;;4.13;;
4244;SDS011;2136;48.502;9.194;2024-02-16T05:30:09;8.70;;;4.60;;
4244;SDS011;2136;48.502;9.194;2024-02-16T05:32:41;5.40;;;4.50;;
4244;SDS011;2136;48.502;9.194;2024-02-16T05:35:09;4.57;;;3.93;;
4244;SDS011;2136;48.502;9.194;2024-02-16T05:37:38;5.00;;;4.00;;
4244;SDS011;2136;48.502;9.194;2024-02-16T05:40:07;5.70;;;5.13;;
4244;SDS011;2136;48.502;9.194;2024-02-16T05:42:44;6.80;;;5.10;;
4244;SDS011;2136;48.502;9.194;2024-02-16T05:45:12;6.70;;;6.03;;
4244;SDS011;2136;48.502;9.194;2024-02-16T05:47:40;5.97;;;4.40;;
4244;SDS011;2136;48.502;9.194;2024-02-16T05:50:08;5.47;;;4.60;;
4244;SDS011;2136;48.502;9.194;2024-02-16T05:52:36;4.50;;;4.10;;
4244;SDS011;2136;48.502;9.194;2024-02-16T05:55:04;11.70;;;5.03;;
4244;SDS011;2136;48.502;9.194;2024-02-16T05:57:32;9.37;;;4.80;;
4244;SDS011;2136;48.502;9.194;2024-02-16T05:59:58;8.10;;;4.43;;
4244;SDS011;2136;48.502;9.194;2024-02-16T06:02:25;4.97;;;4.43;;
4244;SDS011;2136;48.502;9.194;2024-02-16T06:04:53;7.20;;;4.40;;
4244;SDS011;2136;48.502;9.194;2024-02-16T06:07:20;4.30;;;3.90;;
4244;SDS011;2136;48.502;9.194;2024-02-16T06:09:47;5.67;;;3.90;;
4244;SDS011;2136;48.502;9.194;2024-02-16T06:12:14;6.33;;;4.20;;
4244;SDS011;2136;48.502;9.194;2024-02-16T06:14:41;6.67;;;4.20;;
4244;SDS011;2136;48.502;9.194;2024-02-16T06:17:07;6.17;;;3.17;;
4244;SDS011;2136;48.502;9.194;2024-02-16T06:19:34;5.53;;;4.17;;
4244;SDS011;2136;48.502;9.194;2024-02-16T06:22:03;5.03;;;4.00;;
4244;SDS011;2136;48.502;9.194;2024-02-16T06:24:30;4.23;;;3.90;;
4244;SDS011;2136;48.502;9.194;2024-02-16T06:26:56;4.50;;;4.10;;
4244;SDS011;2136;48.502;9.194;2024-02-16T06:29:23;9.80;;;4.10;;
4244;SDS011;2136;48.502;9.194;2024-02-16T06:31:50;7.07;;;4.03;;
4244;SDS011;2136;48.502;9.194;2024-02-16T06:34:17;3.90;;;2.90;;
4244;SDS011;2136;48.502;9.194;2024-02-16T06:36:45;7.33;;;4.17;;
4244;SDS011;2136;48.502;9.194;2024-02-16T06:39:14;6.57;;;3.73;;
4244;SDS011;2136;48.502;9.194;2024-02-16T06:41:43;3.63;;;3.30;;
4244;SDS011;2136;48.502;9.194;2024-02-16T06:44:11;3.47;;;3.17;;
4244;SDS011;2136;48.502;9.194;2024-02-16T06:46:38;4.40;;;3.50;;
4244;SDS011;2136;48.502;9.194;2024-02-16T06:49:05;4.53;;;3.77;;
4244;SDS011;2136;48.502;9.194;2024-02-16T06:51:32;4.10;;;3.70;;
4244;SDS011;2136;48.502;9.194;2024-02-16T06:53:59;4.47;;;4.03;;
4244;SDS011;2136;48.502;9.194;2024-02-16T06:56:27;5.67;;;3.93;;
4244;SDS011;2136;48.502;9.194;2024-02-16T06:58:55;5.43;;;4.27;;
4244;SDS011;2136;48.502;9.194;2024-02-16T07:01:22;7.90;;;4.77;;
4244;SDS011;2136;48.502;9.194;2024-02-16T07:03:51;4.70;;;4.20;;
4244;SDS011;2136;48.502;9.194;2024-02-16T07:06:17;9.50;;;5.30;;
4244;SDS011;2136;48.502;9.194;2024-02-16T07:08:44;4.50;;;3.97;;
4244;SDS011;2136;48.502;9.194;2024-02-16T07:11:11;6.47;;;4.17;;
4244;SDS011;2136;48.502;9.194;2024-02-16T07:13:40;4.50;;;3.53;;
4244;SDS011;2136;48.502;9.194;2024-02-16T07:16:07;9.13;;;3.90;;
4244;SDS011;2136;48.502;9.194;2024-02-16T07:18:34;4.50;;;3.63;;
4244;SDS011;2136;48.502;9.194;2024-02-16T07:21:01;6.70;;;4.47;;
4244;SDS011;2136;48.502;9.194;2024-02-16T07:23:29;8.33;;;4.00;;
4244;SDS011;2136;48.502;9.194;2024-02-16T07:25:56;3.33;;;3.03;;
4244;SDS011;2136;48.502;9.194;2024-02-16T07:28:23;6.13;;;3.67;;
4244;SDS011;2136;48.502;9.194;2024-02-16T07:30:52;4.30;;;3.50;;
4244;SDS011;2136;48.502;9.194;2024-02-16T07:33:19;6.43;;;3.67;;
4244;SDS011;2136;48.502;9.194;2024-02-16T07:35:46;7.47;;;4.63;;
4244;SDS011;2136;48.502;9.194;2024-02-16T07:38:13;6.30;;;5.07;;
4244;SDS011;2136;48.502;9.194;2024-02-16T07:40:40;6.23;;;4.60;;
4244;SDS011;2136;48.502;9.194;2024-02-16T07:43:06;8.00;;;5.00;;
4244;SDS011;2136;48.502;9.194;2024-02-16T07:45:33;8.10;;;4.97;;
4244;SDS011;2136;48.502;9.194;2024-02-16T07:48:01;10.63;;;5.00;;
4244;SDS011;2136;48.502;9.194;2024-02-16T07:50:30;7.20;;;5.37;;
4244;SDS011;2136;48.502;9.194;2024-02-16T07:52:57;6.10;;;4.80;;
4244;SDS011;2136;48.502;9.194;2024-02-16T07:55:24;5.83;;;4.37;;
4244;SDS011;2136;48.502;9.194;2024-02-16T07:57:51;7.20;;;5.00;;
4244;SDS011;2136;48.502;9.194;2024-02-16T08:00:18;8.10;;;5.87;;
4244;SDS011;2136;48.502;9.194;2024-02-16T08:02:45;10.77;;;4.80;;
4244;SDS011;2136;48.502;9.194;2024-02-16T08:05:13;7.43;;;4.27;;
4244;SDS011;2136;48.502;9.194;2024-02-16T08:07:44;5.10;;;4.30;;
4244;SDS011;2136;48.502;9.194;2024-02-16T08:10:12;8.47;;;4.93;;
4244;SDS011;2136;48.502;9.194;2024-02-16T08:12:39;14.97;;;5.03;;
4244;SDS011;2136;48.502;9.194;2024-02-16T08:15:06;4.80;;;4.30;;
4244;SDS011;2136;48.502;9.194;2024-02-16T08:17:33;6.37;;;5.27;;
4244;SDS011;2136;48.502;9.194;2024-02-16T08:20:01;4.83;;;4.40;;
4244;SDS011;2136;48.502;9.194;2024-02-16T08:22:29;13.87;;;6.43;;
4244;SDS011;2136;48.502;9.194;2024-02-16T08:24:57;7.83;;;4.87;;
4244;SDS011;2136;48.502;9.194;2024-02-16T08:27:24;9.50;;;4.23;;
4244;SDS011;2136;48.502;9.194;2024-02-16T08:29:51;4.43;;;4.03;;
4244;SDS011;2136;48.502;9.194;2024-02-16T08:32:17;6.20;;;4.60;;
4244;SDS011;2136;48.502;9.194;2024-02-16T08:34:45;9.50;;;4.90;;
4244;SDS011;2136;48.502;9.194;2024-02-16T08:37:13;5.90;;;4.50;;
4244;SDS011;2136;48.502;9.194;2024-02-16T08:39:41;4.60;;;3.97;;
4244;SDS011;2136;48.502;9.194;2024-02-16T08:42:08;5.20;;;3.77;;
4244;SDS011;2136;48.502;9.194;2024-02-16T08:44:36;4.20;;;3.70;;
4244;SDS011;2136;48.502;9.194;2024-02-16T08:47:04;6.53;;;4.40;;
4244;SDS011;2136;48.502;9.194;2024-02-16T08:49:31;9.20;;;3.80;;
4244;SDS011;2136;48.502;9.194;2024-02-16T08:51:58;4.23;;;3.80;;
4244;SDS011;2136;48.502;9.194;2024-02-16T08:54:24;5.30;;;3.67;;
4244;SDS011;2136;48.502;9.194;2024-02-16T08:56:53;3.33;;;3.07;;
4244;SDS011;2136;48.502;9.194;2024-02-16T08:59:20;5.13;;;3.33;;
4244;SDS011;2136;48.502;9.194;2024-02-16T09:01:47;4.33;;;3.77;;
4244;SDS011;2136;48.502;9.194;2024-02-16T09:04:13;4.07;;;2.60;;
4244;SDS011;2136;48.502;9.194;2024-02-16T09:06:41;3.70;;;2.97;;
4244;SDS011;2136;48.502;9.194;2024-02-16T09:09:08;6.60;;;3.03;;
4244;SDS011;2136;48.502;9.194;2024-02-16T09:11:35;2.80;;;2.20;;
4244;SDS011;2136;48.502;9.194;2024-02-16T09:14:03;4.90;;;2.83;;
4244;SDS011;2136;48.502;9.194;2024-02-16T09:16:30;8.10;;;3.03;;
4244;SDS011;2136;48.502;9.194;2024-02-16T09:18:57;2.60;;;2.07;;
4244;SDS011;2136;48.502;9.194;2024-02-16T09:21:24;3.73;;;2.80;;
4244;SDS011;2136;48.502;9.194;2024-02-16T09:23:54;3.07;;;2.00;;
4244;SDS011;2136;48.502;9.194;2024-02-16T09:26:23;1.80;;;1.70;;
4244;SDS011;2136;48.502;9.194;2024-02-16T09:28:51;2.50;;;2.30;;
4244;SDS011;2136;48.502;9.194;2024-02-16T09:31:20;3.57;;;1.80;;
4244;SDS011;2136;48.502;9.194;2024-02-16T09:33:47;2.60;;;1.90;;
4244;SDS011;2136;48.502;9.194;2024-02-16T09:36:17;1.87;;;1.77;;
4244;SDS011;2136;48.502;9.194;2024-02-16T09:38:43;2.23;;;1.80;;
4244;SDS011;2136;48.502;9.194;2024-02-16T09:41:12;3.13;;;2.30;;
4244;SDS011;2136;48.502;9.194;2024-02-16T09:43:41;2.30;;;2.03;;
4244;SDS011;2136;48.502;9.194;2024-02-16T09:46:08;2.50;;;1.93;;
4244;SDS011;2136;48.502;9.194;2024-02-16T09:48:36;7.20;;;2.03;;
4244;SDS011;2136;48.502;9.194;2024-02-16T09:51:05;4.13;;;3.17;;
4244;SDS011;2136;48.502;9.194;2024-02-16T09:53:32;8.60;;;2.03;;
4244;SDS011;2136;48.502;9.194;2024-02-16T09:55:59;1.57;;;1.47;;
4244;SDS011;2136;48.502;9.194;2024-02-16T09:58:26;1.87;;;1.77;;
4244;SDS011;2136;48.502;9.194;2024-02-16T10:00:54;1.70;;;1.60;;
4244;SDS011;2136;48.502;9.194;2024-02-16T10:03:22;2.30;;;2.03;;
4244;SDS011;2136;48.502;9.194;2024-02-16T10:05:51;2.30;;;1.87;;
4244;SDS011;2136;48.502;9.194;2024-02-16T10:08:18;3.30;;;1.80;;
4244;SDS011;2136;48.502;9.194;2024-02-16T10:10:45;1.80;;;1.43;;
4244;SDS011;2136;48.502;9.194;2024-02-16T10:13:12;3.43;;;1.83;;
4244;SDS011;2136;48.502;9.194;2024-02-16T10:15:39;2.97;;;1.90;;
4244;SDS011;2136;48.502;9.194;2024-02-16T10:18:06;4.40;;;1.80;;
4244;SDS011;2136;48.502;9.194;2024-02-16T10:20:34;3.93;;;1.50;;
4244;SDS011;2136;48.502;9.194;2024-02-16T10:23:03;2.10;;;1.60;;
4244;SDS011;2136;48.502;9.194;2024-02-16T10:25:34;2.83;;;1.80;;
4244;SDS011;2136;48.502;9.194;2024-02-16T10:28:03;2.77;;;1.97;;
4244;SDS011;2136;48.502;9.194;2024-02-16T10:30:34;4.63;;;2.10;;
4244;SDS011;2136;48.502;9.194;2024-02-16T10:33:02;1.60;;;1.50;;
4244;SDS011;2136;48.502;9.194;2024-02-16T10:35:30;4.57;;;2.67;;
4244;SDS011;2136;48.502;9.194;2024-02-16T10:37:58;1.70;;;1.60;;
4244;SDS011;2136;48.502;9.194;2024-02-16T10:40:31;3.27;;;1.73;;
4244;SDS011;2136;48.502;9.194;2024-02-16T10:43:00;4.63;;;2.20;;
4244;SDS011;2136;48.502;9.194;2024-02-16T10:45:31;1.93;;;1.63;;
4244;SDS011;2136;48.502;9.194;2024-02-16T10:48:00;4.00;;;1.60;;
4244;SDS011;2136;48.502;9.194;2024-02-16T10:50:27;2.37;;;1.80;;
4244;SDS011;2136;48.502;9.194;2024-02-16T10:52:54;2.10;;;1.80;;
4244;SDS011;2136;48.502;9.194;2024-02-16T10:55:23;5.63;;;1.73;;
4244;SDS011;2136;48.502;9.194;2024-02-16T10:57:52;3.27;;;1.93;;
4244;SDS011;2136;48.502;9.194;2024-02-16T11:00:20;2.00;;;1.70;;
4244;SDS011;2136;48.502;9.194;2024-02-16T11:02:51;1.77;;;1.67;;
4244;SDS011;2136;48.502;9.194;2024-02-16T11:05:34;2.20;;;2.00;;
4244;SDS011;2136;48.502;9.194;2024-02-16T11:08:01;2.03;;;1.80;;
4244;SDS011;2136;48.502;9.194;2024-02-16T11:10:29;3.13;;;2.07;;
4244;SDS011;2136;48.502;9.194;2024-02-16T11:13:01;2.40;;;1.80;;
4244;SDS011;2136;48.502;9.194;2024-02-16T11:15:30;1.93;;;1.70;;
4244;SDS011;2136;48.502;9.194;2024-02-16T11:17:57;3.37;;;1.97;;
4244;SDS011;2136;48.502;9.194;2024-02-16T11:20:26;4.93;;;1.57;;
4244;SDS011;2136;48.502;9.194;2024-02-16T11:22:53;2.40;;;1.70;;
4244;SDS011;2136;48.502;9.194;2024-02-16T11:25:32;6.80;;;2.57;;
4244;SDS011;2136;48.502;9.194;2024-02-16T11:28:01;2.60;;;2.00;;
4244;SDS011;2136;48.502;9.194;2024-02-16T11:30:28;3.50;;;1.87;;
4244;SDS011;2136;48.502;9.194;2024-02-16T11:32:59;4.17;;;1.67;;
4244;SDS011;2136;48.502;9.194;2024-02-16T11:35:26;1.50;;;1.40;;
4244;SDS011;2136;48.502;9.194;2024-02-16T11:37:54;3.87;;;1.90;;
4244;SDS011;2136;48.502;9.194;2024-02-16T11:40:22;1.57;;;1.47;;
4244;SDS011;2136;48.502;9.194;2024-02-16T11:42:49;5.90;;;1.47;;
4244;SDS011;2136;48.502;9.194;2024-02-16T11:45:24;2.80;;;1.87;;
4244;SDS011;2136;48.502;9.194;2024-02-16T11:47:51;2.70;;;1.20;;
4244;SDS011;2136;48.502;9.194;2024-02-16T11:50:28;3.23;;;1.80;;
4244;SDS011;2136;48.502;9.194;2024-02-16T11:52:55;5.80;;;1.77;;
4244;SDS011;2136;48.502;9.194;2024-02-16T11:55:22;2.20;;;2.00;;
4244;SDS011;2136;48.502;9.194;2024-02-16T11:57:49;3.80;;;1.80;;
4244;SDS011;2136;48.502;9.194;2024-02-16T12:00:16;4.10;;;2.23;;
4244;SDS011;2136;48.502;9.194;2024-02-16T12:02:44;3.47;;;2.30;;
4244;SDS011;2136;48.502;9.194;2024-02-16T12:05:13;5.70;;;2.37;;
4244;SDS011;2136;48.502;9.194;2024-02-16T12:07:40;2.87;;;1.93;;
4244;SDS011;2136;48.502;9.194;2024-02-16T12:10:07;4.10;;;2.17;;
4244;SDS011;2136;48.502;9.194;2024-02-16T12:12:34;3.70;;;2.37;;
4244;SDS011;2136;48.502;9.194;2024-02-16T12:15:01;2.13;;;1.97;;
4244;SDS011;2136;48.502;9.194;2024-02-16T12:17:28;2.20;;;1.80;;
4244;SDS011;2136;48.502;9.194;2024-02-16T12:19:56;3.50;;;1.90;;
4244;SDS011;2136;48.502;9.194;2024-02-16T12:22:23;3.23;;;1.87;;
4244;SDS011;2136;48.502;9.194;2024-02-16T12:24:50;1.97;;;1.80;;
4244;SDS011;2136;48.502;9.194;2024-02-16T12:27:17;1.73;;;1.63;;
4244;SDS011;2136;48.502;9.194;2024-02-16T12:29:44;2.47;;;2.00;;
4244;SDS011;2136;48.502;9.194;2024-02-16T12:32:11;4.20;;;1.80;;
4244;SDS011;2136;48.502;9.194;2024-02-16T12:34:43;7.03;;;2.70;;
4244;SDS011;2136;48.502;9.194;2024-02-16T12:37:11;4.13;;;2.60;;
4244;SDS011;2136;48.502;9.194;2024-02-16T12:39:38;2.40;;;2.07;;
4244;SDS011;2136;48.502;9.194;2024-02-16T12:42:06;2.17;;;1.97;;
4244;SDS011;2136;48.502;9.194;2024-02-16T12:44:33;5.83;;;1.83;;
4244;SDS011;2136;48.502;9.194;2024-02-16T12:46:59;2.20;;;2.07;;
4244;SDS011;2136;48.502;9.194;2024-02-16T12:49:26;2.50;;;1.93;;
4244;SDS011;2136;48.502;9.194;2024-02-16T12:51:53;2.90;;;2.30;;
4244;SDS011;2136;48.502;9.194;2024-02-16T12:54:21;3.23;;;2.33;;
4244;SDS011;2136;48.502;9.194;2024-02-16T12:56:48;3.37;;;2.30;;
4244;SDS011;2136;48.502;9.194;2024-02-16T12:59:16;3.27;;;2.37;;
4244;SDS011;2136;48.502;9.194;2024-02-16T13:01:43;2.73;;;1.93;;
4244;SDS011;2136;48.502;9.194;2024-02-16T13:04:11;4.60;;;2.60;;
4244;SDS011;2136;48.502;9.194;2024-02-16T13:06:38;4.23;;;2.77;;
4244;SDS011;2136;48.502;9.194;2024-02-16T13:09:05;4.47;;;2.40;;
4244;SDS011;2136;48.502;9.194;2024-02-16T13:11:34;3.33;;;2.57;;
4244;SDS011;2136;48.502;9.194;2024-02-16T13:14:01;8.50;;;2.47;;
4244;SDS011;2136;48.502;9.194;2024-02-16T13:16:28;3.90;;;2.57;;
4244;SDS011;2136;48.502;9.194;2024-02-16T13:18:55;3.33;;;2.20;;
4244;SDS011;2136;48.502;9.194;2024-02-16T13:21:22;3.27;;;1.90;;
4244;SDS011;2136;48.502;9.194;2024-02-16T13:23:49;4.73;;;2.00;;
4244;SDS011;2136;48.502;9.194;2024-02-16T13:26:15;10.63;;;2.27;;
4244;SDS011;2136;48.502;9.194;2024-02-16T13:28:44;3.60;;;3.10;;
4244;SDS011;2136;48.502;9.194;2024-02-16T13:31:11;4.10;;;2.87;;
4244;SDS011;2136;48.502;9.194;2024-02-16T13:33:37;2.60;;;2.13;;
4244;SDS011;2136;48.502;9.194;2024-02-16T13:36:04;2.53;;;2.30;;
4244;SDS011;2136;48.502;9.194;2024-02-16T13:38:32;4.53;;;2.50;;
4244;SDS011;2136;48.502;9.194;2024-02-16T13:40:59;4.10;;;2.30;;
4244;SDS011;2136;48.502;9.194;2024-02-16T13:43:25;5.73;;;2.57;;
4244;SDS011;2136;48.502;9.194;2024-02-16T13:45:54;2.83;;;1.73;;
4244;SDS011;2136;48.502;9.194;2024-02-16T13:48:23;5.07;;;2.10;;
4244;SDS011;2136;48.502;9.194;2024-02-16T13:50:50;4.03;;;2.53;;
4244;SDS011;2136;48.502;9.194;2024-02-16T13:53:17;7.53;;;3.23;;
4244;SDS011;2136;48.502;9.194;2024-02-16T13:55:44;4.53;;;3.23;;
4244;SDS011;2136;48.502;9.194;2024-02-16T13:58:11;4.45;;;3.25;;
4244;SDS011;2136;48.502;9.194;2024-02-16T14:00:38;4.70;;;3.40;;
4244;SDS011;2136;48.502;9.194;2024-02-16T14:03:06;6.87;;;3.30;;
4244;SDS011;2136;48.502;9.194;2024-02-16T14:05:35;8.33;;;2.90;;
4244;SDS011;2136;48.502;9.194;2024-02-16T14:08:02;2.63;;;1.67;;
4244;SDS011;2136;48.502;9.194;2024-02-16T14:10:29;3.80;;;1.87;;
4244;SDS011;2136;48.502;9.194;2024-02-16T14:12:57;2.33;;;1.40;;
4244;SDS011;2136;48.502;9.194;2024-02-16T14:15:23;8.27;;;2.07;;
4244;SDS011;2136;48.502;9.194;2024-02-16T14:17:50;10.00;;;2.33;;
4244;SDS011;2136;48.502;9.194;2024-02-16T14:20:19;6.10;;;2.03;;
4244;SDS011;2136;48.502;9.194;2024-02-16T14:22:46;5.90;;;2.70;;
4244;SDS011;2136;48.502;9.194;2024-02-16T14:25:13;5.63;;;1.87;;
4244;SDS011;2136;48.502;9.194;2024-02-16T14:27:40;3.20;;;2.00;;
4244;SDS011;2136;48.502;9.194;2024-02-16T14:30:08;3.57;;;1.80;;
4244;SDS011;2136;48.502;9.194;2024-02-16T14:32:35;4.40;;;2.13;;
4244;SDS011;2136;48.502;9.194;2024-02-16T14:35:02;3.07;;;2.13;;
4244;SDS011;2136;48.502;9.194;2024-02-16T14:37:31;6.30;;;1.97;;
4244;SDS011;2136;48.502;9.194;2024-02-16T14:39:58;8.20;;;2.03;;
4244;SDS011;2136;48.502;9.194;2024-02-16T14:42:26;4.60;;;2.27;;
4244;SDS011;2136;48.502;9.194;2024-02-16T14:44:53;8.47;;;2.63;;
4244;SDS011;2136;48.502;9.194;2024-02-16T14:47:20;6.63;;;2.43;;
4244;SDS011;2136;48.502;9.194;2024-02-16T14:49:48;2.57;;;1.50;;
4244;SDS011;2136;48.502;9.194;2024-02-16T14:52:15;2.70;;;2.07;;
4244;SDS011;2136;48.502;9.194;2024-02-16T14:54:43;5.63;;;2.20;;
4244;SDS011;2136;48.502;9.194;2024-02-16T14:57:10;7.20;;;2.10;;
4244;SDS011;2136;48.502;9.194;2024-02-16T14:59:36;3.80;;;1.97;;
4244;SDS011;2136;48.502;9.194;2024-02-16T15:02:03;3.37;;;2.03;;
4244;SDS011;2136;48.502;9.194;2024-02-16T15:04:30;5.13;;;2.30;;
4244;SDS011;2136;48.502;9.194;2024-02-16T15:06:57;5.90;;;2.73;;
4244;SDS011;2136;48.502;9.194;2024-02-16T15:09:24;13.30;;;2.43;;
4244;SDS011;2136;48.502;9.194;2024-02-16T15:11:52;6.27;;;2.00;;
4244;SDS011;2136;48.502;9.194;2024-02-16T15:14:19;5.23;;;2.27;;
4244;SDS011;2136;48.502;9.194;2024-02-16T15:16:45;3.30;;;2.33;;